sensor_id;sensor_type;location;lat;lon;timestamp;P1;durP1;ratioP1;P2;durP2;ratioP2
49582;SDS011;36329;48.816;44.624;2024-01-06T00:01:40;3.5;;;2.3;;
49582;SDS011;36329;48.816;44.624;2024-01-06T00:04:42;3;;;2.1;;
49582;SDS011;36329;48.816;44.624;2024-01-06T00:07:44;2.8;;;2.2;;
49582;SDS011;36329;48.816;44.624;2024-01-06T00:10:46;4.1;;;2.4;;
49582;SDS011;36329;48.816;44.624;2024-01-06T00:13:48;3.5;;;2.1;;
49582;SDS011;36329;48.816;44.624;2024-01-06T00:16:51;2.9;;;1.9;;
49582;SDS011;36329;48.816;44.624;2024-01-06T00:19:53;4.1;;;2.2;;
49582;SDS011;36329;48.816;44.624;2024-01-06T00:22:55;3.7;;;2;;
49582;SDS011;36329;48.816;44.624;2024-01-06T00:25:57;3;;;1.9;;
49582;SDS011;36329;48.816;44.624;2024-01-06T00:28:59;3.7;;;2.1;;
49582;SDS011;36329;48.816;44.624;2024-01-06T00:32:02;3.8;;;2.1;;
49582;SDS011;36329;48.816;44.624;2024-01-06T00:35:04;3.3;;;2;;
49582;SDS011;36329;48.816;44.624;2024-01-06T00:38:07;3.6;;;2.2;;
49582;SDS011;36329;48.816;44.624;2024-01-06T00:41:09;3.4;;;2;;
49582;SDS011;36329;48.816;44.624;2024-01-06T00:44:11;3.1;;;2;;
49582;SDS011;36329;48.816;44.624;2024-01-06T00:47:13;3.9;;;2.1;;
49582;SDS011;36329;48.816;44.624;2024-01-06T00:50:15;3.4;;;1.9;;
49582;SDS011;36329;48.816;44.624;2024-01-06T00:53:18;3.5;;;1.7;;
49582;SDS011;36329;48.816;44.624;2024-01-06T00:56:20;2.6;;;1.6;;
49582;SDS011;36329;48.816;44.624;2024-01-06T00:59:23;2.5;;;1.7;;
49582;SDS011;36329;48.816;44.624;2024-01-06T01:02:25;3.4;;;1.5;;
49582;SDS011;36329;48.816;44.624;2024-01-06T01:05:27;3;;;1.7;;
49582;SDS011;36329;48.816;44.624;2024-01-06T01:08:29;3;;;1.9;;
49582;SDS011;36329;48.816;44.624;2024-01-06T01:11:31;3.8;;;1.9;;
49582;SDS011;36329;48.816;44.624;2024-01-06T01:14:34;3.9;;;2.1;;
49582;SDS011;36329;48.816;44.624;2024-01-06T01:17:36;3.2;;;1.9;;
49582;SDS011;36329;48.816;44.624;2024-01-06T01:20:38;3.1;;;1.8;;
49582;SDS011;36329;48.816;44.624;2024-01-06T01:23:40;2.9;;;1.7;;
49582;SDS011;36329;48.816;44.624;2024-01-06T01:26:42;2.7;;;1.6;;
49582;SDS011;36329;48.816;44.624;2024-01-06T01:29:44;2.3;;;1.6;;
49582;SDS011;36329;48.816;44.624;2024-01-06T01:32:47;2.8;;;1.7;;
49582;SDS011;36329;48.816;44.624;2024-01-06T01:35:49;2.5;;;1.7;;
49582;SDS011;36329;48.816;44.624;2024-01-06T01:38:52;2.4;;;1.6;;
49582;SDS011;36329;48.816;44.624;2024-01-06T01:41:54;2.3;;;1.5;;
49582;SDS011;36329;48.816;44.624;2024-01-06T01:44:56;2.3;;;1.5;;
49582;SDS011;36329;48.816;44.624;2024-01-06T01:47:58;1.9;;;1.1;;
49582;SDS011;36329;48.816;44.624;2024-01-06T01:51:00;2.3;;;1.4;;
49582;SDS011;36329;48.816;44.624;2024-01-06T01:54:04;2.5;;;1.4;;
49582;SDS011;36329;48.816;44.624;2024-01-06T01:57:07;1.8;;;1.1;;
49582;SDS011;36329;48.816;44.624;2024-01-06T02:00:11;1.9;;;1.3;;
49582;SDS011;36329;48.816;44.624;2024-01-06T02:03:14;2.3;;;1.5;;
49582;SDS011;36329;48.816;44.624;2024-01-06T02:06:17;2;;;1.4;;
49582;SDS011;36329;48.816;44.624;2024-01-06T02:09:19;2.8;;;1.3;;
49582;SDS011;36329;48.816;44.624;2024-01-06T02:12:22;3.1;;;1.2;;
49582;SDS011;36329;48.816;44.624;2024-01-06T02:15:24;2.8;;;1.5;;
49582;SDS011;36329;48.816;44.624;2024-01-06T02:18:27;2.1;;;1.3;;
49582;SDS011;36329;48.816;44.624;2024-01-06T02:21:29;2.2;;;1.5;;
49582;SDS011;36329;48.816;44.624;2024-01-06T02:24:33;2.2;;;1.5;;
49582;SDS011;36329;48.816;44.624;2024-01-06T02:27:35;2.3;;;1.5;;
49582;SDS011;36329;48.816;44.624;2024-01-06T02:30:37;2.3;;;1.5;;
49582;SDS011;36329;48.816;44.624;2024-01-06T02:33:39;3;;;1.4;;
49582;SDS011;36329;48.816;44.624;2024-01-06T02:36:42;2.2;;;1.4;;
49582;SDS011;36329;48.816;44.624;2024-01-06T02:39:45;3.4;;;1.8;;
49582;SDS011;36329;48.816;44.624;2024-01-06T02:42:47;2.3;;;1.5;;
49582;SDS011;36329;48.816;44.624;2024-01-06T02:45:49;3.1;;;1.8;;
49582;SDS011;36329;48.816;44.624;2024-01-06T02:48:51;2.7;;;1.6;;
49582;SDS011;36329;48.816;44.624;2024-01-06T02:51:53;3.7;;;1.9;;
49582;SDS011;36329;48.816;44.624;2024-01-06T02:54:56;3;;;1.8;;
49582;SDS011;36329;48.816;44.624;2024-01-06T02:57:58;4.4;;;1.6;;
49582;SDS011;36329;48.816;44.624;2024-01-06T03:01:00;2.4;;;1.6;;
49582;SDS011;36329;48.816;44.624;2024-01-06T03:04:02;2.9;;;1.8;;
49582;SDS011;36329;48.816;44.624;2024-01-06T03:07:05;2.6;;;1.5;;
49582;SDS011;36329;48.816;44.624;2024-01-06T03:10:07;2.5;;;1.4;;
49582;SDS011;36329;48.816;44.624;2024-01-06T03:13:09;2.1;;;1.4;;
49582;SDS011;36329;48.816;44.624;2024-01-06T03:16:11;2.6;;;1.6;;
49582;SDS011;36329;48.816;44.624;2024-01-06T03:19:14;2.8;;;1.8;;
49582;SDS011;36329;48.816;44.624;2024-01-06T03:22:16;2.6;;;1.6;;
49582;SDS011;36329;48.816;44.624;2024-01-06T03:25:18;3.3;;;1.7;;
49582;SDS011;36329;48.816;44.624;2024-01-06T03:28:20;3.4;;;1.8;;
49582;SDS011;36329;48.816;44.624;2024-01-06T03:31:22;3.2;;;1.8;;
49582;SDS011;36329;48.816;44.624;2024-01-06T03:34:24;3.2;;;1.7;;
49582;SDS011;36329;48.816;44.624;2024-01-06T03:37:27;3.7;;;1.9;;
49582;SDS011;36329;48.816;44.624;2024-01-06T03:40:30;5.4;;;2.4;;
49582;SDS011;36329;48.816;44.624;2024-01-06T03:43:32;4.8;;;2.5;;
49582;SDS011;36329;48.816;44.624;2024-01-06T03:46:34;6.5;;;2.8;;
49582;SDS011;36329;48.816;44.624;2024-01-06T03:49:38;7.2;;;3.1;;
49582;SDS011;36329;48.816;44.624;2024-01-06T03:52:40;5.8;;;2.8;;
49582;SDS011;36329;48.816;44.624;2024-01-06T03:55:42;6.8;;;3.1;;
49582;SDS011;36329;48.816;44.624;2024-01-06T03:58:44;9.5;;;3.3;;
49582;SDS011;36329;48.816;44.624;2024-01-06T04:01:47;5.1;;;2.5;;
49582;SDS011;36329;48.816;44.624;2024-01-06T04:04:49;5.1;;;2.5;;
49582;SDS011;36329;48.816;44.624;2024-01-06T04:07:51;2.8;;;1.9;;
49582;SDS011;36329;48.816;44.624;2024-01-06T04:10:54;3.6;;;1.9;;
49582;SDS011;36329;48.816;44.624;2024-01-06T04:13:56;3.7;;;2.1;;
49582;SDS011;36329;48.816;44.624;2024-01-06T04:16:58;5.7;;;2.1;;
49582;SDS011;36329;48.816;44.624;2024-01-06T04:20:00;3.9;;;2;;
49582;SDS011;36329;48.816;44.624;2024-01-06T04:23:02;5.7;;;2.7;;
49582;SDS011;36329;48.816;44.624;2024-01-06T04:26:05;5.4;;;2.9;;
49582;SDS011;36329;48.816;44.624;2024-01-06T04:29:07;9;;;3.6;;
49582;SDS011;36329;48.816;44.624;2024-01-06T04:32:09;10.1;;;3.5;;
49582;SDS011;36329;48.816;44.624;2024-01-06T04:35:11;7.9;;;3.4;;
49582;SDS011;36329;48.816;44.624;2024-01-06T04:38:14;6.6;;;3.2;;
49582;SDS011;36329;48.816;44.624;2024-01-06T04:41:16;4.2;;;2.8;;
49582;SDS011;36329;48.816;44.624;2024-01-06T04:44:20;7;;;2.7;;
49582;SDS011;36329;48.816;44.624;2024-01-06T04:47:22;5.1;;;2.6;;
49582;SDS011;36329;48.816;44.624;2024-01-06T04:50:24;6;;;3.6;;
49582;SDS011;36329;48.816;44.624;2024-01-06T04:53:26;10;;;3.7;;
49582;SDS011;36329;48.816;44.624;2024-01-06T04:56:29;6.3;;;2.9;;
49582;SDS011;36329;48.816;44.624;2024-01-06T04:59:31;6.2;;;2.9;;
49582;SDS011;36329;48.816;44.624;2024-01-06T05:02:34;6.6;;;3;;
49582;SDS011;36329;48.816;44.624;2024-01-06T05:05:36;6.5;;;3.2;;
49582;SDS011;36329;48.816;44.624;2024-01-06T05:08:38;7.1;;;3.4;;
49582;SDS011;36329;48.816;44.624;2024-01-06T05:11:43;9.2;;;3.7;;
49582;SDS011;36329;48.816;44.624;2024-01-06T05:14:48;8;;;3.8;;
49582;SDS011;36329;48.816;44.624;2024-01-06T05:17:50;10.8;;;4.5;;
49582;SDS011;36329;48.816;44.624;2024-01-06T05:20:53;7.7;;;4.1;;
49582;SDS011;36329;48.816;44.624;2024-01-06T05:23:56;7.4;;;3.7;;
49582;SDS011;36329;48.816;44.624;2024-01-06T05:26:59;9.7;;;3.4;;
49582;SDS011;36329;48.816;44.624;2024-01-06T05:30:01;6.3;;;3.4;;
49582;SDS011;36329;48.816;44.624;2024-01-06T05:33:08;6.1;;;3.4;;
49582;SDS011;36329;48.816;44.624;2024-01-06T05:36:12;7.7;;;4;;
49582;SDS011;36329;48.816;44.624;2024-01-06T05:39:15;10.5;;;4.1;;
49582;SDS011;36329;48.816;44.624;2024-01-06T05:42:17;8.9;;;4.3;;
49582;SDS011;36329;48.816;44.624;2024-01-06T05:45:19;10.1;;;4.8;;
49582;SDS011;36329;48.816;44.624;2024-01-06T05:48:23;10.3;;;4.2;;
49582;SDS011;36329;48.816;44.624;2024-01-06T05:51:26;9.7;;;4.2;;
49582;SDS011;36329;48.816;44.624;2024-01-06T05:54:29;7;;;3.6;;
49582;SDS011;36329;48.816;44.624;2024-01-06T05:57:35;9.1;;;4.1;;
49582;SDS011;36329;48.816;44.624;2024-01-06T06:00:39;7.9;;;4;;
49582;SDS011;36329;48.816;44.624;2024-01-06T06:03:41;10.7;;;4.6;;
49582;SDS011;36329;48.816;44.624;2024-01-06T06:06:44;7.9;;;4.5;;
49582;SDS011;36329;48.816;44.624;2024-01-06T06:09:49;7.8;;;4.4;;
49582;SDS011;36329;48.816;44.624;2024-01-06T06:12:57;7.9;;;4;;
49582;SDS011;36329;48.816;44.624;2024-01-06T06:16:01;9;;;4.1;;
49582;SDS011;36329;48.816;44.624;2024-01-06T06:19:06;6.7;;;3.6;;
49582;SDS011;36329;48.816;44.624;2024-01-06T06:22:10;4.5;;;3.2;;
49582;SDS011;36329;48.816;44.624;2024-01-06T06:25:13;6.4;;;3.3;;
49582;SDS011;36329;48.816;44.624;2024-01-06T06:28:15;6.6;;;3.4;;
49582;SDS011;36329;48.816;44.624;2024-01-06T06:31:17;7.5;;;4.1;;
49582;SDS011;36329;48.816;44.624;2024-01-06T06:34:20;8.2;;;4.4;;
49582;SDS011;36329;48.816;44.624;2024-01-06T06:37:23;7.4;;;3.7;;
49582;SDS011;36329;48.816;44.624;2024-01-06T06:40:25;7.3;;;3.9;;
49582;SDS011;36329;48.816;44.624;2024-01-06T06:43:28;6.8;;;3.8;;
49582;SDS011;36329;48.816;44.624;2024-01-06T06:46:30;8.8;;;4.1;;
49582;SDS011;36329;48.816;44.624;2024-01-06T06:49:32;7.2;;;4;;
49582;SDS011;36329;48.816;44.624;2024-01-06T06:52:35;6.7;;;4;;
49582;SDS011;36329;48.816;44.624;2024-01-06T06:55:38;7.3;;;4.2;;
49582;SDS011;36329;48.816;44.624;2024-01-06T06:58:40;9.3;;;4.7;;
49582;SDS011;36329;48.816;44.624;2024-01-06T07:01:42;10.2;;;4.6;;
49582;SDS011;36329;48.816;44.624;2024-01-06T07:04:45;10.3;;;4.8;;
49582;SDS011;36329;48.816;44.624;2024-01-06T07:07:48;8.2;;;4.6;;
49582;SDS011;36329;48.816;44.624;2024-01-06T07:10:50;9.5;;;5.1;;
49582;SDS011;36329;48.816;44.624;2024-01-06T07:13:53;10.4;;;5.8;;
49582;SDS011;36329;48.816;44.624;2024-01-06T07:16:55;11.6;;;6.5;;
49582;SDS011;36329;48.816;44.624;2024-01-06T07:19:58;11.7;;;6.5;;
49582;SDS011;36329;48.816;44.624;2024-01-06T07:23:00;11.4;;;6.1;;
49582;SDS011;36329;48.816;44.624;2024-01-06T07:26:03;12.1;;;6.3;;
49582;SDS011;36329;48.816;44.624;2024-01-06T07:29:06;13.1;;;6.6;;
49582;SDS011;36329;48.816;44.624;2024-01-06T07:32:09;11.9;;;6.6;;
49582;SDS011;36329;48.816;44.624;2024-01-06T07:35:12;12.3;;;6.2;;
49582;SDS011;36329;48.816;44.624;2024-01-06T07:38:15;14.1;;;6.1;;
49582;SDS011;36329;48.816;44.624;2024-01-06T07:41:18;13.7;;;7.2;;
49582;SDS011;36329;48.816;44.624;2024-01-06T07:44:20;15.2;;;7.4;;
49582;SDS011;36329;48.816;44.624;2024-01-06T07:47:22;18.5;;;8.3;;
49582;SDS011;36329;48.816;44.624;2024-01-06T07:50:25;18.7;;;9;;
49582;SDS011;36329;48.816;44.624;2024-01-06T07:53:28;18.6;;;8.9;;
49582;SDS011;36329;48.816;44.624;2024-01-06T07:56:31;18.6;;;8.7;;
49582;SDS011;36329;48.816;44.624;2024-01-06T07:59:33;19.1;;;9.4;;
49582;SDS011;36329;48.816;44.624;2024-01-06T08:02:35;19.1;;;9.1;;
49582;SDS011;36329;48.816;44.624;2024-01-06T08:05:37;15.5;;;8.7;;
49582;SDS011;36329;48.816;44.624;2024-01-06T08:08:40;18;;;8.6;;
49582;SDS011;36329;48.816;44.624;2024-01-06T08:11:44;16.2;;;7.5;;
49582;SDS011;36329;48.816;44.624;2024-01-06T08:14:49;15.4;;;7.7;;
49582;SDS011;36329;48.816;44.624;2024-01-06T08:17:52;14.9;;;8.1;;
49582;SDS011;36329;48.816;44.624;2024-01-06T08:20:54;16.6;;;8.9;;
49582;SDS011;36329;48.816;44.624;2024-01-06T08:23:57;15.7;;;8.1;;
49582;SDS011;36329;48.816;44.624;2024-01-06T08:26:59;15.1;;;7.9;;
49582;SDS011;36329;48.816;44.624;2024-01-06T08:30:02;14.6;;;8.1;;
49582;SDS011;36329;48.816;44.624;2024-01-06T08:33:06;14.2;;;7.7;;
49582;SDS011;36329;48.816;44.624;2024-01-06T08:36:08;13.2;;;7.4;;
49582;SDS011;36329;48.816;44.624;2024-01-06T08:39:11;14.8;;;7.5;;
49582;SDS011;36329;48.816;44.624;2024-01-06T08:42:13;12.8;;;7.2;;
49582;SDS011;36329;48.816;44.624;2024-01-06T08:45:16;13.8;;;7.9;;
49582;SDS011;36329;48.816;44.624;2024-01-06T08:48:19;14.2;;;7.9;;
49582;SDS011;36329;48.816;44.624;2024-01-06T08:51:21;15.5;;;8.5;;
49582;SDS011;36329;48.816;44.624;2024-01-06T08:54:24;15.4;;;8.5;;
49582;SDS011;36329;48.816;44.624;2024-01-06T08:57:27;13.3;;;7.5;;
49582;SDS011;36329;48.816;44.624;2024-01-06T09:00:30;15.3;;;8;;
49582;SDS011;36329;48.816;44.624;2024-01-06T09:03:32;13.9;;;7.9;;
49582;SDS011;36329;48.816;44.624;2024-01-06T09:06:34;13.5;;;7.4;;
49582;SDS011;36329;48.816;44.624;2024-01-06T09:09:37;13.6;;;7.2;;
49582;SDS011;36329;48.816;44.624;2024-01-06T09:12:39;13.5;;;8.2;;
49582;SDS011;36329;48.816;44.624;2024-01-06T09:15:42;14.6;;;7.9;;
49582;SDS011;36329;48.816;44.624;2024-01-06T09:18:45;16.1;;;7.9;;
49582;SDS011;36329;48.816;44.624;2024-01-06T09:21:47;13.7;;;8.2;;
49582;SDS011;36329;48.816;44.624;2024-01-06T09:24:49;13.2;;;7.5;;
49582;SDS011;36329;48.816;44.624;2024-01-06T09:27:51;12.9;;;7.6;;
49582;SDS011;36329;48.816;44.624;2024-01-06T09:30:54;13.1;;;7.6;;
49582;SDS011;36329;48.816;44.624;2024-01-06T09:33:59;13.2;;;7.4;;
49582;SDS011;36329;48.816;44.624;2024-01-06T09:37:02;14;;;7.9;;
49582;SDS011;36329;48.816;44.624;2024-01-06T09:40:05;13.5;;;7.5;;
49582;SDS011;36329;48.816;44.624;2024-01-06T09:43:10;13.5;;;7.7;;
49582;SDS011;36329;48.816;44.624;2024-01-06T09:46:15;16.5;;;8.2;;
49582;SDS011;36329;48.816;44.624;2024-01-06T09:49:22;13.7;;;8;;
49582;SDS011;36329;48.816;44.624;2024-01-06T09:52:25;12.8;;;7.1;;
49582;SDS011;36329;48.816;44.624;2024-01-06T09:55:28;12.6;;;7.2;;
49582;SDS011;36329;48.816;44.624;2024-01-06T09:58:31;13.3;;;7.5;;
49582;SDS011;36329;48.816;44.624;2024-01-06T10:01:34;16.2;;;8.7;;
49582;SDS011;36329;48.816;44.624;2024-01-06T10:04:36;17.7;;;8.7;;
49582;SDS011;36329;48.816;44.624;2024-01-06T10:07:41;17.2;;;9.3;;
49582;SDS011;36329;48.816;44.624;2024-01-06T10:10:44;13.9;;;8.2;;
49582;SDS011;36329;48.816;44.624;2024-01-06T10:13:48;16.9;;;9.7;;
49582;SDS011;36329;48.816;44.624;2024-01-06T10:16:51;15.8;;;9.2;;
49582;SDS011;36329;48.816;44.624;2024-01-06T10:19:55;15.6;;;8.9;;
49582;SDS011;36329;48.816;44.624;2024-01-06T10:22:58;17.5;;;9.5;;
49582;SDS011;36329;48.816;44.624;2024-01-06T10:26:07;17.1;;;9;;
49582;SDS011;36329;48.816;44.624;2024-01-06T10:29:15;17.9;;;9.8;;
49582;SDS011;36329;48.816;44.624;2024-01-06T10:32:18;17.1;;;9.3;;
49582;SDS011;36329;48.816;44.624;2024-01-06T10:35:21;16.8;;;9.3;;
49582;SDS011;36329;48.816;44.624;2024-01-06T10:38:24;16.9;;;9.8;;
49582;SDS011;36329;48.816;44.624;2024-01-06T10:41:28;16.8;;;9.4;;
49582;SDS011;36329;48.816;44.624;2024-01-06T10:44:32;17.5;;;9.3;;
49582;SDS011;36329;48.816;44.624;2024-01-06T10:47:40;16.8;;;9.2;;
49582;SDS011;36329;48.816;44.624;2024-01-06T10:50:44;20.5;;;10.4;;
49582;SDS011;36329;48.816;44.624;2024-01-06T10:53:47;19;;;9.6;;
49582;SDS011;36329;48.816;44.624;2024-01-06T10:56:51;19.2;;;9.6;;
49582;SDS011;36329;48.816;44.624;2024-01-06T10:59:56;18.5;;;8.8;;
49582;SDS011;36329;48.816;44.624;2024-01-06T11:03:00;17.6;;;9.1;;
49582;SDS011;36329;48.816;44.624;2024-01-06T11:06:06;18.5;;;9.9;;
49582;SDS011;36329;48.816;44.624;2024-01-06T11:09:13;18.4;;;10;;
49582;SDS011;36329;48.816;44.624;2024-01-06T11:12:21;15.6;;;8.7;;
49582;SDS011;36329;48.816;44.624;2024-01-06T11:18:44;17.6;;;9.3;;
49582;SDS011;36329;48.816;44.624;2024-01-06T11:21:46;15.8;;;9.1;;
49582;SDS011;36329;48.816;44.624;2024-01-06T11:24:48;17.8;;;9.3;;
49582;SDS011;36329;48.816;44.624;2024-01-06T11:27:51;15.7;;;9.3;;
49582;SDS011;36329;48.816;44.624;2024-01-06T11:34:14;18.4;;;9.6;;
49582;SDS011;36329;48.816;44.624;2024-01-06T11:37:18;17.8;;;10;;
49582;SDS011;36329;48.816;44.624;2024-01-06T11:40:24;15.6;;;9;;
49582;SDS011;36329;48.816;44.624;2024-01-06T11:43:28;18.2;;;9.2;;
49582;SDS011;36329;48.816;44.624;2024-01-06T11:46:31;15.9;;;8.7;;
49582;SDS011;36329;48.816;44.624;2024-01-06T11:49:35;16.8;;;9.5;;
49582;SDS011;36329;48.816;44.624;2024-01-06T11:52:38;16.2;;;9.2;;
49582;SDS011;36329;48.816;44.624;2024-01-06T11:55:41;16;;;9.2;;
49582;SDS011;36329;48.816;44.624;2024-01-06T11:58:45;16.7;;;9.3;;
49582;SDS011;36329;48.816;44.624;2024-01-06T12:01:48;16.4;;;9;;
49582;SDS011;36329;48.816;44.624;2024-01-06T12:04:51;17.1;;;9.3;;
49582;SDS011;36329;48.816;44.624;2024-01-06T12:07:55;15.9;;;8.9;;
49582;SDS011;36329;48.816;44.624;2024-01-06T12:11:02;17;;;8.7;;
49582;SDS011;36329;48.816;44.624;2024-01-06T12:14:06;15.7;;;8.5;;
49582;SDS011;36329;48.816;44.624;2024-01-06T12:17:08;17.9;;;8.9;;
49582;SDS011;36329;48.816;44.624;2024-01-06T12:20:11;20.4;;;9.3;;
49582;SDS011;36329;48.816;44.624;2024-01-06T12:23:23;16.1;;;9.3;;
49582;SDS011;36329;48.816;44.624;2024-01-06T12:26:26;16.8;;;9.7;;
49582;SDS011;36329;48.816;44.624;2024-01-06T12:29:30;17.2;;;9.7;;
49582;SDS011;36329;48.816;44.624;2024-01-06T12:32:33;17.9;;;9.8;;
49582;SDS011;36329;48.816;44.624;2024-01-06T12:35:35;18.1;;;9.4;;
49582;SDS011;36329;48.816;44.624;2024-01-06T12:38:38;16.6;;;9.1;;
49582;SDS011;36329;48.816;44.624;2024-01-06T12:41:40;16.5;;;8.7;;
49582;SDS011;36329;48.816;44.624;2024-01-06T12:44:43;18;;;9;;
49582;SDS011;36329;48.816;44.624;2024-01-06T12:47:45;15.9;;;8.8;;
49582;SDS011;36329;48.816;44.624;2024-01-06T12:50:49;17;;;9.2;;
49582;SDS011;36329;48.816;44.624;2024-01-06T12:53:51;17.6;;;9.6;;
49582;SDS011;36329;48.816;44.624;2024-01-06T12:56:53;17;;;9.4;;
49582;SDS011;36329;48.816;44.624;2024-01-06T12:59:56;17.5;;;9.5;;
49582;SDS011;36329;48.816;44.624;2024-01-06T13:02:59;19.3;;;9.3;;
49582;SDS011;36329;48.816;44.624;2024-01-06T13:06:01;16.9;;;9;;
49582;SDS011;36329;48.816;44.624;2024-01-06T13:09:04;15.2;;;7.3;;
49582;SDS011;36329;48.816;44.624;2024-01-06T13:12:06;15.1;;;8.2;;
49582;SDS011;36329;48.816;44.624;2024-01-06T13:15:09;16.3;;;8.5;;
49582;SDS011;36329;48.816;44.624;2024-01-06T13:18:12;15.6;;;8.2;;
49582;SDS011;36329;48.816;44.624;2024-01-06T13:21:14;15.2;;;8.2;;
49582;SDS011;36329;48.816;44.624;2024-01-06T13:24:17;17.8;;;8.4;;
49582;SDS011;36329;48.816;44.624;2024-01-06T13:27:21;17.2;;;8.5;;
49582;SDS011;36329;48.816;44.624;2024-01-06T13:30:23;14.4;;;7.2;;
49582;SDS011;36329;48.816;44.624;2024-01-06T13:33:25;15;;;8.4;;
49582;SDS011;36329;48.816;44.624;2024-01-06T13:36:28;15.1;;;8.1;;
49582;SDS011;36329;48.816;44.624;2024-01-06T13:39:31;13.7;;;7.6;;
49582;SDS011;36329;48.816;44.624;2024-01-06T13:42:33;11.7;;;6.7;;
49582;SDS011;36329;48.816;44.624;2024-01-06T13:45:36;12.5;;;6.9;;
49582;SDS011;36329;48.816;44.624;2024-01-06T13:48:38;12.3;;;6.6;;
49582;SDS011;36329;48.816;44.624;2024-01-06T13:51:41;13.6;;;7.3;;
49582;SDS011;36329;48.816;44.624;2024-01-06T13:54:44;11.5;;;7;;
49582;SDS011;36329;48.816;44.624;2024-01-06T13:57:47;12.8;;;7.2;;
49582;SDS011;36329;48.816;44.624;2024-01-06T14:00:49;14.3;;;7.6;;
49582;SDS011;36329;48.816;44.624;2024-01-06T14:03:51;16;;;7.8;;
49582;SDS011;36329;48.816;44.624;2024-01-06T14:06:54;16.7;;;8;;
49582;SDS011;36329;48.816;44.624;2024-01-06T14:09:57;14.8;;;7.6;;
49582;SDS011;36329;48.816;44.624;2024-01-06T14:12:59;15.4;;;8.3;;
49582;SDS011;36329;48.816;44.624;2024-01-06T14:16:01;15;;;8;;
49582;SDS011;36329;48.816;44.624;2024-01-06T14:19:09;13.6;;;7.9;;
49582;SDS011;36329;48.816;44.624;2024-01-06T14:22:11;15.9;;;8;;
49582;SDS011;36329;48.816;44.624;2024-01-06T14:25:14;15.7;;;8;;
49582;SDS011;36329;48.816;44.624;2024-01-06T14:28:18;16.4;;;8.3;;
49582;SDS011;36329;48.816;44.624;2024-01-06T14:31:21;13;;;7.6;;
49582;SDS011;36329;48.816;44.624;2024-01-06T14:34:23;13.3;;;7.6;;
49582;SDS011;36329;48.816;44.624;2024-01-06T14:37:26;16.6;;;8.5;;
49582;SDS011;36329;48.816;44.624;2024-01-06T14:40:29;16.3;;;8.6;;
49582;SDS011;36329;48.816;44.624;2024-01-06T14:43:31;17.7;;;8.8;;
49582;SDS011;36329;48.816;44.624;2024-01-06T14:46:33;16.2;;;8.4;;
49582;SDS011;36329;48.816;44.624;2024-01-06T14:49:35;14.3;;;7.6;;
49582;SDS011;36329;48.816;44.624;2024-01-06T14:52:38;14.6;;;8;;
49582;SDS011;36329;48.816;44.624;2024-01-06T14:55:40;14.6;;;8.1;;
49582;SDS011;36329;48.816;44.624;2024-01-06T14:58:42;15.8;;;8.1;;
49582;SDS011;36329;48.816;44.624;2024-01-06T15:01:44;14.5;;;7.7;;
49582;SDS011;36329;48.816;44.624;2024-01-06T15:04:49;15.3;;;8.1;;
49582;SDS011;36329;48.816;44.624;2024-01-06T15:07:51;15;;;8.1;;
49582;SDS011;36329;48.816;44.624;2024-01-06T15:10:54;19.2;;;8.4;;
49582;SDS011;36329;48.816;44.624;2024-01-06T15:13:56;16.8;;;8.4;;
49582;SDS011;36329;48.816;44.624;2024-01-06T15:16:58;14.7;;;8.5;;
49582;SDS011;36329;48.816;44.624;2024-01-06T15:20:01;15;;;7.6;;
49582;SDS011;36329;48.816;44.624;2024-01-06T15:23:05;18.2;;;8.4;;
49582;SDS011;36329;48.816;44.624;2024-01-06T15:26:08;16.1;;;8.2;;
49582;SDS011;36329;48.816;44.624;2024-01-06T15:29:10;14.8;;;8.2;;
49582;SDS011;36329;48.816;44.624;2024-01-06T15:32:13;18.5;;;8.3;;
49582;SDS011;36329;48.816;44.624;2024-01-06T15:35:16;15.4;;;8;;
49582;SDS011;36329;48.816;44.624;2024-01-06T15:38:18;14.5;;;8.5;;
49582;SDS011;36329;48.816;44.624;2024-01-06T15:41:21;14.3;;;8.1;;
49582;SDS011;36329;48.816;44.624;2024-01-06T15:44:23;16.1;;;9.2;;
49582;SDS011;36329;48.816;44.624;2024-01-06T15:47:25;17;;;8.5;;
49582;SDS011;36329;48.816;44.624;2024-01-06T15:50:28;17.8;;;8.4;;
49582;SDS011;36329;48.816;44.624;2024-01-06T15:53:30;15.8;;;8.4;;
49582;SDS011;36329;48.816;44.624;2024-01-06T15:56:32;16.8;;;9;;
49582;SDS011;36329;48.816;44.624;2024-01-06T15:59:35;16.1;;;8.5;;
49582;SDS011;36329;48.816;44.624;2024-01-06T16:02:37;18.7;;;9.4;;
49582;SDS011;36329;48.816;44.624;2024-01-06T16:05:41;16.5;;;9.4;;
49582;SDS011;36329;48.816;44.624;2024-01-06T16:08:44;16.5;;;9.4;;
49582;SDS011;36329;48.816;44.624;2024-01-06T16:11:46;19.9;;;9.3;;
49582;SDS011;36329;48.816;44.624;2024-01-06T16:14:49;18.3;;;9.2;;
49582;SDS011;36329;48.816;44.624;2024-01-06T16:17:51;20.8;;;9.8;;
49582;SDS011;36329;48.816;44.624;2024-01-06T16:20:54;19.7;;;9.8;;
49582;SDS011;36329;48.816;44.624;2024-01-06T16:23:57;16.6;;;9.2;;
49582;SDS011;36329;48.816;44.624;2024-01-06T16:26:59;18.2;;;9.5;;
49582;SDS011;36329;48.816;44.624;2024-01-06T16:30:02;22.2;;;9.6;;
49582;SDS011;36329;48.816;44.624;2024-01-06T16:33:08;18.5;;;9.8;;
49582;SDS011;36329;48.816;44.624;2024-01-06T16:36:11;16.8;;;9.4;;
49582;SDS011;36329;48.816;44.624;2024-01-06T16:39:13;16.8;;;10.1;;
49582;SDS011;36329;48.816;44.624;2024-01-06T16:42:16;18.6;;;9.6;;
49582;SDS011;36329;48.816;44.624;2024-01-06T16:45:18;20.5;;;9.9;;
49582;SDS011;36329;48.816;44.624;2024-01-06T16:48:21;16.7;;;9;;
49582;SDS011;36329;48.816;44.624;2024-01-06T16:51:23;14.7;;;8.7;;
49582;SDS011;36329;48.816;44.624;2024-01-06T16:54:25;17.2;;;9;;
49582;SDS011;36329;48.816;44.624;2024-01-06T16:57:28;15.7;;;8.5;;
49582;SDS011;36329;48.816;44.624;2024-01-06T17:00:30;17;;;8.4;;
49582;SDS011;36329;48.816;44.624;2024-01-06T17:03:33;14.8;;;7.8;;
49582;SDS011;36329;48.816;44.624;2024-01-06T17:06:35;12.7;;;7.8;;
49582;SDS011;36329;48.816;44.624;2024-01-06T17:09:38;15.4;;;8.1;;
49582;SDS011;36329;48.816;44.624;2024-01-06T17:12:41;16.3;;;8.2;;
49582;SDS011;36329;48.816;44.624;2024-01-06T17:15:43;16.9;;;8.5;;
49582;SDS011;36329;48.816;44.624;2024-01-06T17:18:46;16.3;;;8.7;;
49582;SDS011;36329;48.816;44.624;2024-01-06T17:21:49;13.7;;;7.6;;
49582;SDS011;36329;48.816;44.624;2024-01-06T17:24:52;18.2;;;9;;
49582;SDS011;36329;48.816;44.624;2024-01-06T17:27:55;16.1;;;8.3;;
49582;SDS011;36329;48.816;44.624;2024-01-06T17:30:57;15.4;;;8.5;;
49582;SDS011;36329;48.816;44.624;2024-01-06T17:34:00;16.3;;;8.5;;
49582;SDS011;36329;48.816;44.624;2024-01-06T17:37:02;18;;;8.3;;
49582;SDS011;36329;48.816;44.624;2024-01-06T17:40:05;16.8;;;8.7;;
49582;SDS011;36329;48.816;44.624;2024-01-06T17:43:08;15.4;;;8;;
49582;SDS011;36329;48.816;44.624;2024-01-06T17:46:10;15.1;;;8.2;;
49582;SDS011;36329;48.816;44.624;2024-01-06T17:49:13;16.9;;;8.3;;
49582;SDS011;36329;48.816;44.624;2024-01-06T17:52:15;15;;;8.3;;
49582;SDS011;36329;48.816;44.624;2024-01-06T17:55:18;15.1;;;8;;
49582;SDS011;36329;48.816;44.624;2024-01-06T17:58:21;14;;;7.7;;
49582;SDS011;36329;48.816;44.624;2024-01-06T18:01:23;13.9;;;7.4;;
49582;SDS011;36329;48.816;44.624;2024-01-06T18:04:25;13.5;;;7.5;;
49582;SDS011;36329;48.816;44.624;2024-01-06T18:07:28;11;;;6.3;;
49582;SDS011;36329;48.816;44.624;2024-01-06T18:10:30;11.9;;;6.4;;
49582;SDS011;36329;48.816;44.624;2024-01-06T18:13:32;12.8;;;6.6;;
49582;SDS011;36329;48.816;44.624;2024-01-06T18:16:34;11.4;;;5.8;;
49582;SDS011;36329;48.816;44.624;2024-01-06T18:19:37;11.5;;;6;;
49582;SDS011;36329;48.816;44.624;2024-01-06T18:22:41;10.9;;;5.6;;
49582;SDS011;36329;48.816;44.624;2024-01-06T18:25:44;9.4;;;5.4;;
49582;SDS011;36329;48.816;44.624;2024-01-06T18:28:46;9.6;;;5.3;;
49582;SDS011;36329;48.816;44.624;2024-01-06T18:31:49;9.9;;;5.4;;
49582;SDS011;36329;48.816;44.624;2024-01-06T18:34:52;11.1;;;5.2;;
49582;SDS011;36329;48.816;44.624;2024-01-06T18:37:55;10.2;;;5.5;;
49582;SDS011;36329;48.816;44.624;2024-01-06T18:40:58;9.5;;;5.4;;